sensor_id;sensor_type;location;lat;lon;timestamp;P1;durP1;ratioP1;P2;durP2;ratioP2
74660;SDS011;63191;39.566;2.654;2022-12-16T00:01:11;8.20;;;1.40;;
74660;SDS011;63191;39.566;2.654;2022-12-16T00:03:46;6.90;;;1.20;;
74660;SDS011;63191;39.566;2.654;2022-12-16T00:06:25;5.70;;;1.20;;
74660;SDS011;63191;39.566;2.654;2022-12-16T00:08:54;10.90;;;3.60;;
74660;SDS011;63191;39.566;2.654;2022-12-16T00:11:21;14.40;;;4.00;;
74660;SDS011;63191;39.566;2.654;2022-12-16T00:13:47;9.00;;;3.00;;
74660;SDS011;63191;39.566;2.654;2022-12-16T00:16:15;7.40;;;1.30;;
74660;SDS011;63191;39.566;2.654;2022-12-16T00:18:43;10.20;;;3.30;;
74660;SDS011;63191;39.566;2.654;2022-12-16T00:21:10;7.20;;;1.20;;
74660;SDS011;63191;39.566;2.654;2022-12-16T00:23:37;9.10;;;1.80;;
74660;SDS011;63191;39.566;2.654;2022-12-16T00:26:07;8.70;;;1.50;;
74660;SDS011;63191;39.566;2.654;2022-12-16T00:28:33;6.00;;;0.90;;
74660;SDS011;63191;39.566;2.654;2022-12-16T00:30:59;7.60;;;0.80;;
74660;SDS011;63191;39.566;2.654;2022-12-16T00:33:26;5.40;;;1.00;;
74660;SDS011;63191;39.566;2.654;2022-12-16T00:35:53;7.60;;;1.00;;
74660;SDS011;63191;39.566;2.654;2022-12-16T00:38:21;6.50;;;0.90;;
74660;SDS011;63191;39.566;2.654;2022-12-16T00:40:48;6.50;;;1.00;;
74660;SDS011;63191;39.566;2.654;2022-12-16T00:43:14;3.70;;;0.50;;
74660;SDS011;63191;39.566;2.654;2022-12-16T00:45:40;12.00;;;3.10;;
74660;SDS011;63191;39.566;2.654;2022-12-16T00:48:07;16.90;;;6.30;;
74660;SDS011;63191;39.566;2.654;2022-12-16T00:50:34;9.10;;;2.50;;
74660;SDS011;63191;39.566;2.654;2022-12-16T00:53:00;7.90;;;1.20;;
74660;SDS011;63191;39.566;2.654;2022-12-16T00:55:27;6.50;;;1.00;;
74660;SDS011;63191;39.566;2.654;2022-12-16T00:57:53;6.00;;;0.70;;
74660;SDS011;63191;39.566;2.654;2022-12-16T01:00:19;7.20;;;1.50;;
74660;SDS011;63191;39.566;2.654;2022-12-16T01:02:48;6.90;;;1.10;;
74660;SDS011;63191;39.566;2.654;2022-12-16T01:05:17;9.50;;;0.70;;
74660;SDS011;63191;39.566;2.654;2022-12-16T01:07:46;7.70;;;0.60;;
74660;SDS011;63191;39.566;2.654;2022-12-16T01:10:13;8.80;;;1.00;;
74660;SDS011;63191;39.566;2.654;2022-12-16T01:12:39;6.70;;;1.20;;
74660;SDS011;63191;39.566;2.654;2022-12-16T01:15:06;5.40;;;0.70;;
74660;SDS011;63191;39.566;2.654;2022-12-16T01:17:33;4.90;;;0.70;;
74660;SDS011;63191;39.566;2.654;2022-12-16T01:19:59;6.40;;;1.10;;
74660;SDS011;63191;39.566;2.654;2022-12-16T01:22:29;7.50;;;1.20;;
74660;SDS011;63191;39.566;2.654;2022-12-16T01:24:57;6.50;;;1.30;;
74660;SDS011;63191;39.566;2.654;2022-12-16T01:27:24;6.70;;;1.20;;
74660;SDS011;63191;39.566;2.654;2022-12-16T01:29:51;5.90;;;1.10;;
74660;SDS011;63191;39.566;2.654;2022-12-16T01:32:17;6.30;;;0.70;;
74660;SDS011;63191;39.566;2.654;2022-12-16T01:34:42;6.30;;;0.50;;
74660;SDS011;63191;39.566;2.654;2022-12-16T01:37:12;9.30;;;0.90;;
74660;SDS011;63191;39.566;2.654;2022-12-16T01:39:38;6.50;;;0.80;;
74660;SDS011;63191;39.566;2.654;2022-12-16T01:42:14;3.30;;;0.60;;
74660;SDS011;63191;39.566;2.654;2022-12-16T01:44:50;6.30;;;0.50;;
74660;SDS011;63191;39.566;2.654;2022-12-16T01:47:20;6.40;;;0.80;;
74660;SDS011;63191;39.566;2.654;2022-12-16T01:50:03;6.70;;;0.70;;
74660;SDS011;63191;39.566;2.654;2022-12-16T01:52:39;5.90;;;0.60;;
74660;SDS011;63191;39.566;2.654;2022-12-16T01:55:50;6.90;;;0.80;;
74660;SDS011;63191;39.566;2.654;2022-12-16T01:58:08;6.60;;;0.50;;
74660;SDS011;63191;39.566;2.654;2022-12-16T02:00:39;6.40;;;1.40;;
74660;SDS011;63191;39.566;2.654;2022-12-16T02:03:06;7.00;;;0.90;;
74660;SDS011;63191;39.566;2.654;2022-12-16T02:05:35;6.30;;;1.10;;
74660;SDS011;63191;39.566;2.654;2022-12-16T02:08:10;7.30;;;1.10;;
74660;SDS011;63191;39.566;2.654;2022-12-16T02:15:51;5.80;;;1.00;;
74660;SDS011;63191;39.566;2.654;2022-12-16T02:18:40;8.90;;;0.90;;
74660;SDS011;63191;39.566;2.654;2022-12-16T02:32:33;10.90;;;1.20;;
74660;SDS011;63191;39.566;2.654;2022-12-16T02:41:14;7.40;;;0.90;;
74660;SDS011;63191;39.566;2.654;2022-12-16T02:43:56;6.00;;;0.70;;
74660;SDS011;63191;39.566;2.654;2022-12-16T02:46:29;7.70;;;0.80;;
74660;SDS011;63191;39.566;2.654;2022-12-16T02:49:07;8.70;;;0.80;;
74660;SDS011;63191;39.566;2.654;2022-12-16T02:51:57;7.40;;;1.20;;
74660;SDS011;63191;39.566;2.654;2022-12-16T02:54:24;8.50;;;1.10;;
74660;SDS011;63191;39.566;2.654;2022-12-16T02:56:58;10.50;;;0.90;;
74660;SDS011;63191;39.566;2.654;2022-12-16T02:59:46;7.10;;;0.80;;
74660;SDS011;63191;39.566;2.654;2022-12-16T03:02:46;8.00;;;0.80;;
74660;SDS011;63191;39.566;2.654;2022-12-16T03:05:34;8.10;;;1.00;;
74660;SDS011;63191;39.566;2.654;2022-12-16T03:08:05;9.30;;;0.90;;
74660;SDS011;63191;39.566;2.654;2022-12-16T03:10:48;7.20;;;1.10;;
74660;SDS011;63191;39.566;2.654;2022-12-16T03:13:18;9.90;;;1.20;;
74660;SDS011;63191;39.566;2.654;2022-12-16T03:15:46;5.00;;;0.70;;
74660;SDS011;63191;39.566;2.654;2022-12-16T03:18:14;12.00;;;1.30;;
74660;SDS011;63191;39.566;2.654;2022-12-16T03:20:45;10.50;;;0.80;;
74660;SDS011;63191;39.566;2.654;2022-12-16T03:23:47;8.40;;;1.00;;
74660;SDS011;63191;39.566;2.654;2022-12-16T03:32:36;11.50;;;1.20;;
74660;SDS011;63191;39.566;2.654;2022-12-16T03:38:09;6.60;;;1.00;;
74660;SDS011;63191;39.566;2.654;2022-12-16T03:40:37;9.70;;;1.20;;
74660;SDS011;63191;39.566;2.654;2022-12-16T03:43:06;12.00;;;1.50;;
74660;SDS011;63191;39.566;2.654;2022-12-16T03:45:42;9.70;;;1.50;;
74660;SDS011;63191;39.566;2.654;2022-12-16T03:48:11;8.40;;;1.10;;
74660;SDS011;63191;39.566;2.654;2022-12-16T03:50:38;9.70;;;1.10;;
74660;SDS011;63191;39.566;2.654;2022-12-16T03:53:06;8.00;;;0.90;;
74660;SDS011;63191;39.566;2.654;2022-12-16T03:55:32;8.90;;;1.30;;
74660;SDS011;63191;39.566;2.654;2022-12-16T03:57:58;8.90;;;1.20;;
74660;SDS011;63191;39.566;2.654;2022-12-16T04:00:24;8.40;;;1.30;;
74660;SDS011;63191;39.566;2.654;2022-12-16T04:02:51;6.00;;;0.50;;
74660;SDS011;63191;39.566;2.654;2022-12-16T04:05:17;10.30;;;1.10;;
74660;SDS011;63191;39.566;2.654;2022-12-16T04:07:43;11.70;;;1.20;;
74660;SDS011;63191;39.566;2.654;2022-12-16T04:10:11;8.20;;;0.90;;
74660;SDS011;63191;39.566;2.654;2022-12-16T04:12:37;8.10;;;1.20;;
74660;SDS011;63191;39.566;2.654;2022-12-16T04:15:21;12.90;;;1.00;;
74660;SDS011;63191;39.566;2.654;2022-12-16T04:18:12;7.80;;;1.30;;
74660;SDS011;63191;39.566;2.654;2022-12-16T04:20:59;10.60;;;0.90;;
74660;SDS011;63191;39.566;2.654;2022-12-16T04:23:52;10.30;;;1.10;;
74660;SDS011;63191;39.566;2.654;2022-12-16T04:26:38;9.40;;;1.10;;
74660;SDS011;63191;39.566;2.654;2022-12-16T04:29:23;6.60;;;0.70;;
74660;SDS011;63191;39.566;2.654;2022-12-16T04:31:50;8.70;;;0.90;;
74660;SDS011;63191;39.566;2.654;2022-12-16T04:34:16;9.60;;;0.70;;
74660;SDS011;63191;39.566;2.654;2022-12-16T04:36:59;8.00;;;0.80;;
74660;SDS011;63191;39.566;2.654;2022-12-16T04:39:45;6.70;;;0.70;;
74660;SDS011;63191;39.566;2.654;2022-12-16T04:42:30;10.00;;;1.10;;
74660;SDS011;63191;39.566;2.654;2022-12-16T04:45:15;6.40;;;0.70;;
74660;SDS011;63191;39.566;2.654;2022-12-16T04:48:00;9.00;;;1.20;;
74660;SDS011;63191;39.566;2.654;2022-12-16T04:50:45;6.40;;;0.90;;
74660;SDS011;63191;39.566;2.654;2022-12-16T04:53:29;5.40;;;0.70;;
74660;SDS011;63191;39.566;2.654;2022-12-16T04:56:14;8.10;;;1.20;;
74660;SDS011;63191;39.566;2.654;2022-12-16T04:58:58;8.50;;;0.80;;
74660;SDS011;63191;39.566;2.654;2022-12-16T05:01:43;8.10;;;0.70;;
74660;SDS011;63191;39.566;2.654;2022-12-16T05:04:28;8.20;;;0.80;;
74660;SDS011;63191;39.566;2.654;2022-12-16T05:07:12;8.60;;;0.70;;
74660;SDS011;63191;39.566;2.654;2022-12-16T05:09:57;8.90;;;0.70;;
74660;SDS011;63191;39.566;2.654;2022-12-16T05:12:41;9.10;;;1.20;;
74660;SDS011;63191;39.566;2.654;2022-12-16T05:15:26;9.50;;;1.50;;
74660;SDS011;63191;39.566;2.654;2022-12-16T05:18:13;7.70;;;0.90;;
74660;SDS011;63191;39.566;2.654;2022-12-16T05:21:01;5.80;;;0.90;;
74660;SDS011;63191;39.566;2.654;2022-12-16T05:23:46;10.90;;;1.00;;
74660;SDS011;63191;39.566;2.654;2022-12-16T05:26:31;7.60;;;0.80;;
74660;SDS011;63191;39.566;2.654;2022-12-16T05:29:16;8.60;;;0.90;;
74660;SDS011;63191;39.566;2.654;2022-12-16T05:32:00;7.10;;;0.80;;
74660;SDS011;63191;39.566;2.654;2022-12-16T05:34:45;8.40;;;0.90;;
74660;SDS011;63191;39.566;2.654;2022-12-16T05:37:30;6.80;;;0.80;;
74660;SDS011;63191;39.566;2.654;2022-12-16T05:40:14;10.50;;;1.40;;
74660;SDS011;63191;39.566;2.654;2022-12-16T05:42:59;8.30;;;1.10;;
74660;SDS011;63191;39.566;2.654;2022-12-16T05:45:43;9.20;;;1.00;;
74660;SDS011;63191;39.566;2.654;2022-12-16T05:48:28;4.90;;;0.50;;
74660;SDS011;63191;39.566;2.654;2022-12-16T05:51:12;6.00;;;0.70;;
74660;SDS011;63191;39.566;2.654;2022-12-16T05:53:57;5.80;;;0.60;;
74660;SDS011;63191;39.566;2.654;2022-12-16T05:56:42;4.90;;;0.90;;
74660;SDS011;63191;39.566;2.654;2022-12-16T05:59:33;3.70;;;0.50;;
74660;SDS011;63191;39.566;2.654;2022-12-16T06:02:18;3.10;;;0.60;;
74660;SDS011;63191;39.566;2.654;2022-12-16T06:05:02;3.40;;;0.50;;
74660;SDS011;63191;39.566;2.654;2022-12-16T06:07:51;4.40;;;0.40;;
74660;SDS011;63191;39.566;2.654;2022-12-16T06:10:36;4.10;;;0.80;;
74660;SDS011;63191;39.566;2.654;2022-12-16T06:13:20;7.30;;;0.70;;
74660;SDS011;63191;39.566;2.654;2022-12-16T06:16:05;6.50;;;0.60;;
74660;SDS011;63191;39.566;2.654;2022-12-16T06:18:50;5.40;;;0.60;;
74660;SDS011;63191;39.566;2.654;2022-12-16T06:21:34;6.80;;;0.50;;
74660;SDS011;63191;39.566;2.654;2022-12-16T06:24:18;3.90;;;0.50;;
74660;SDS011;63191;39.566;2.654;2022-12-16T06:27:03;3.20;;;0.40;;
74660;SDS011;63191;39.566;2.654;2022-12-16T06:29:47;3.50;;;0.30;;
74660;SDS011;63191;39.566;2.654;2022-12-16T06:32:31;4.20;;;0.40;;
74660;SDS011;63191;39.566;2.654;2022-12-16T06:35:16;3.50;;;0.70;;
74660;SDS011;63191;39.566;2.654;2022-12-16T06:38:01;3.60;;;0.30;;
74660;SDS011;63191;39.566;2.654;2022-12-16T06:40:45;6.20;;;0.40;;
74660;SDS011;63191;39.566;2.654;2022-12-16T06:43:30;4.40;;;0.70;;
74660;SDS011;63191;39.566;2.654;2022-12-16T06:46:15;4.50;;;0.50;;
74660;SDS011;63191;39.566;2.654;2022-12-16T06:48:59;3.60;;;0.30;;
74660;SDS011;63191;39.566;2.654;2022-12-16T06:51:44;5.30;;;0.50;;
74660;SDS011;63191;39.566;2.654;2022-12-16T06:54:28;4.10;;;0.70;;
74660;SDS011;63191;39.566;2.654;2022-12-16T06:57:12;6.10;;;0.90;;
74660;SDS011;63191;39.566;2.654;2022-12-16T06:59:56;5.30;;;0.70;;
74660;SDS011;63191;39.566;2.654;2022-12-16T07:03:00;5.70;;;0.90;;
74660;SDS011;63191;39.566;2.654;2022-12-16T07:05:45;4.10;;;0.50;;
74660;SDS011;63191;39.566;2.654;2022-12-16T07:08:37;4.20;;;0.50;;
74660;SDS011;63191;39.566;2.654;2022-12-16T07:11:21;4.40;;;0.60;;
74660;SDS011;63191;39.566;2.654;2022-12-16T07:14:06;6.00;;;0.60;;
74660;SDS011;63191;39.566;2.654;2022-12-16T07:16:50;4.30;;;0.50;;
74660;SDS011;63191;39.566;2.654;2022-12-16T07:19:34;6.30;;;0.60;;
74660;SDS011;63191;39.566;2.654;2022-12-16T07:22:18;4.80;;;0.70;;
74660;SDS011;63191;39.566;2.654;2022-12-16T07:25:02;3.30;;;0.70;;
74660;SDS011;63191;39.566;2.654;2022-12-16T07:27:46;4.90;;;0.30;;
74660;SDS011;63191;39.566;2.654;2022-12-16T07:30:31;4.50;;;0.60;;
74660;SDS011;63191;39.566;2.654;2022-12-16T07:33:15;6.60;;;0.60;;
74660;SDS011;63191;39.566;2.654;2022-12-16T07:36:00;6.50;;;0.70;;
74660;SDS011;63191;39.566;2.654;2022-12-16T07:38:44;3.90;;;0.40;;
74660;SDS011;63191;39.566;2.654;2022-12-16T07:41:29;5.40;;;1.00;;
74660;SDS011;63191;39.566;2.654;2022-12-16T07:44:13;5.60;;;0.80;;
74660;SDS011;63191;39.566;2.654;2022-12-16T07:46:57;5.70;;;1.20;;
74660;SDS011;63191;39.566;2.654;2022-12-16T07:49:42;4.40;;;0.60;;
74660;SDS011;63191;39.566;2.654;2022-12-16T07:52:26;6.60;;;1.00;;
74660;SDS011;63191;39.566;2.654;2022-12-16T07:55:10;5.40;;;0.90;;
74660;SDS011;63191;39.566;2.654;2022-12-16T07:57:55;5.50;;;0.70;;
74660;SDS011;63191;39.566;2.654;2022-12-16T08:00:39;12.00;;;1.40;;
74660;SDS011;63191;39.566;2.654;2022-12-16T08:03:23;12.00;;;1.20;;
74660;SDS011;63191;39.566;2.654;2022-12-16T08:06:07;12.90;;;1.20;;
74660;SDS011;63191;39.566;2.654;2022-12-16T08:08:51;9.30;;;1.20;;
74660;SDS011;63191;39.566;2.654;2022-12-16T08:11:36;9.20;;;1.90;;
74660;SDS011;63191;39.566;2.654;2022-12-16T08:14:20;26.50;;;3.80;;
74660;SDS011;63191;39.566;2.654;2022-12-16T08:17:06;12.70;;;1.90;;
74660;SDS011;63191;39.566;2.654;2022-12-16T08:19:51;12.60;;;1.10;;
74660;SDS011;63191;39.566;2.654;2022-12-16T08:22:35;20.10;;;2.90;;
74660;SDS011;63191;39.566;2.654;2022-12-16T08:25:19;15.50;;;1.90;;
74660;SDS011;63191;39.566;2.654;2022-12-16T08:28:03;14.00;;;1.80;;
74660;SDS011;63191;39.566;2.654;2022-12-16T08:30:49;15.20;;;1.40;;
74660;SDS011;63191;39.566;2.654;2022-12-16T08:33:34;5.70;;;0.90;;
74660;SDS011;63191;39.566;2.654;2022-12-16T08:36:18;12.90;;;1.60;;
74660;SDS011;63191;39.566;2.654;2022-12-16T08:39:04;7.50;;;0.90;;
74660;SDS011;63191;39.566;2.654;2022-12-16T08:41:48;7.10;;;0.90;;
74660;SDS011;63191;39.566;2.654;2022-12-16T08:44:33;11.00;;;1.10;;
74660;SDS011;63191;39.566;2.654;2022-12-16T08:47:17;7.50;;;0.80;;
74660;SDS011;63191;39.566;2.654;2022-12-16T08:50:01;3.60;;;0.50;;
74660;SDS011;63191;39.566;2.654;2022-12-16T08:52:46;8.40;;;0.90;;
74660;SDS011;63191;39.566;2.654;2022-12-16T08:55:30;5.20;;;0.60;;
74660;SDS011;63191;39.566;2.654;2022-12-16T08:58:15;4.60;;;0.80;;
74660;SDS011;63191;39.566;2.654;2022-12-16T09:00:59;6.90;;;0.80;;
74660;SDS011;63191;39.566;2.654;2022-12-16T09:03:43;4.70;;;1.00;;
74660;SDS011;63191;39.566;2.654;2022-12-16T09:06:28;5.40;;;0.90;;
74660;SDS011;63191;39.566;2.654;2022-12-16T09:09:12;6.70;;;1.20;;
74660;SDS011;63191;39.566;2.654;2022-12-16T09:11:56;4.30;;;1.30;;
74660;SDS011;63191;39.566;2.654;2022-12-16T09:14:40;6.90;;;1.90;;
74660;SDS011;63191;39.566;2.654;2022-12-16T09:17:24;7.30;;;2.60;;
74660;SDS011;63191;39.566;2.654;2022-12-16T09:20:09;8.50;;;2.80;;
74660;SDS011;63191;39.566;2.654;2022-12-16T09:22:54;9.00;;;2.90;;
74660;SDS011;63191;39.566;2.654;2022-12-16T09:25:39;8.30;;;2.60;;
74660;SDS011;63191;39.566;2.654;2022-12-16T09:28:23;11.90;;;3.40;;
74660;SDS011;63191;39.566;2.654;2022-12-16T09:31:07;10.60;;;2.20;;
74660;SDS011;63191;39.566;2.654;2022-12-16T09:33:52;6.10;;;2.70;;
74660;SDS011;63191;39.566;2.654;2022-12-16T09:36:36;6.60;;;2.80;;
74660;SDS011;63191;39.566;2.654;2022-12-16T09:39:21;6.40;;;2.70;;
74660;SDS011;63191;39.566;2.654;2022-12-16T09:51:33;7.80;;;3.00;;
74660;SDS011;63191;39.566;2.654;2022-12-16T09:54:19;7.30;;;2.70;;
74660;SDS011;63191;39.566;2.654;2022-12-16T09:57:07;6.90;;;2.60;;
74660;SDS011;63191;39.566;2.654;2022-12-16T10:00:00;6.70;;;3.30;;
74660;SDS011;63191;39.566;2.654;2022-12-16T10:02:49;9.60;;;3.20;;
74660;SDS011;63191;39.566;2.654;2022-12-16T10:05:52;29.80;;;5.00;;
74660;SDS011;63191;39.566;2.654;2022-12-16T10:08:51;11.10;;;3.80;;
74660;SDS011;63191;39.566;2.654;2022-12-16T10:12:21;7.10;;;3.50;;
74660;SDS011;63191;39.566;2.654;2022-12-16T10:15:30;18.90;;;8.20;;
74660;SDS011;63191;39.566;2.654;2022-12-16T10:19:11;14.70;;;5.50;;
74660;SDS011;63191;39.566;2.654;2022-12-16T10:28:45;9.40;;;3.90;;
74660;SDS011;63191;39.566;2.654;2022-12-16T10:31:31;10.10;;;3.80;;
74660;SDS011;63191;39.566;2.654;2022-12-16T10:34:43;10.50;;;3.20;;
74660;SDS011;63191;39.566;2.654;2022-12-16T10:37:30;15.40;;;4.40;;
74660;SDS011;63191;39.566;2.654;2022-12-16T10:40:26;7.80;;;4.30;;
74660;SDS011;63191;39.566;2.654;2022-12-16T10:43:39;11.10;;;4.40;;
74660;SDS011;63191;39.566;2.654;2022-12-16T10:46:28;8.50;;;4.30;;
74660;SDS011;63191;39.566;2.654;2022-12-16T10:49:17;8.50;;;4.10;;
74660;SDS011;63191;39.566;2.654;2022-12-16T10:52:03;8.70;;;4.30;;
74660;SDS011;63191;39.566;2.654;2022-12-16T10:58:14;8.10;;;4.70;;
74660;SDS011;63191;39.566;2.654;2022-12-16T11:00:59;11.00;;;6.00;;
74660;SDS011;63191;39.566;2.654;2022-12-16T11:04:00;8.70;;;5.40;;
74660;SDS011;63191;39.566;2.654;2022-12-16T11:06:44;11.30;;;5.20;;
74660;SDS011;63191;39.566;2.654;2022-12-16T11:09:32;8.90;;;4.40;;
74660;SDS011;63191;39.566;2.654;2022-12-16T11:12:21;6.70;;;4.30;;
74660;SDS011;63191;39.566;2.654;2022-12-16T11:15:26;9.30;;;5.10;;
74660;SDS011;63191;39.566;2.654;2022-12-16T11:18:20;8.00;;;4.20;;
74660;SDS011;63191;39.566;2.654;2022-12-16T11:21:16;7.60;;;4.50;;
74660;SDS011;63191;39.566;2.654;2022-12-16T11:24:18;8.90;;;3.80;;
74660;SDS011;63191;39.566;2.654;2022-12-16T11:27:16;7.80;;;3.70;;
74660;SDS011;63191;39.566;2.654;2022-12-16T11:33:05;9.60;;;4.00;;
74660;SDS011;63191;39.566;2.654;2022-12-16T11:36:21;8.20;;;4.50;;
74660;SDS011;63191;39.566;2.654;2022-12-16T11:39:04;11.50;;;4.00;;
74660;SDS011;63191;39.566;2.654;2022-12-16T11:41:53;8.90;;;4.10;;
74660;SDS011;63191;39.566;2.654;2022-12-16T11:44:51;7.50;;;3.30;;
74660;SDS011;63191;39.566;2.654;2022-12-16T11:47:56;8.30;;;3.60;;
74660;SDS011;63191;39.566;2.654;2022-12-16T11:51:04;7.00;;;2.90;;
74660;SDS011;63191;39.566;2.654;2022-12-16T11:53:59;11.20;;;6.00;;
74660;SDS011;63191;39.566;2.654;2022-12-16T11:57:38;7.30;;;3.00;;
74660;SDS011;63191;39.566;2.654;2022-12-16T12:00:29;5.80;;;2.80;;
74660;SDS011;63191;39.566;2.654;2022-12-16T12:03:23;6.10;;;2.80;;
74660;SDS011;63191;39.566;2.654;2022-12-16T12:06:23;6.50;;;2.40;;
74660;SDS011;63191;39.566;2.654;2022-12-16T12:09:25;7.80;;;3.00;;
74660;SDS011;63191;39.566;2.654;2022-12-16T12:12:25;6.20;;;2.10;;
74660;SDS011;63191;39.566;2.654;2022-12-16T12:15:23;8.30;;;3.00;;
74660;SDS011;63191;39.566;2.654;2022-12-16T12:18:59;4.40;;;2.10;;
74660;SDS011;63191;39.566;2.654;2022-12-16T12:22:33;7.00;;;2.60;;
74660;SDS011;63191;39.566;2.654;2022-12-16T12:25:34;8.40;;;2.20;;
74660;SDS011;63191;39.566;2.654;2022-12-16T12:37:42;5.10;;;1.70;;
74660;SDS011;63191;39.566;2.654;2022-12-16T12:43:57;8.80;;;1.60;;
74660;SDS011;63191;39.566;2.654;2022-12-16T12:46:57;7.30;;;2.60;;
74660;SDS011;63191;39.566;2.654;2022-12-16T12:50:16;5.50;;;1.50;;
74660;SDS011;63191;39.566;2.654;2022-12-16T12:59:28;5.00;;;1.10;;
74660;SDS011;63191;39.566;2.654;2022-12-16T13:02:20;6.20;;;1.20;;
74660;SDS011;63191;39.566;2.654;2022-12-16T13:05:13;6.60;;;1.40;;
74660;SDS011;63191;39.566;2.654;2022-12-16T13:08:31;7.60;;;1.00;;
74660;SDS011;63191;39.566;2.654;2022-12-16T13:11:24;6.40;;;1.10;;
74660;SDS011;63191;39.566;2.654;2022-12-16T13:17:17;7.10;;;1.20;;
74660;SDS011;63191;39.566;2.654;2022-12-16T13:20:04;8.60;;;1.80;;
74660;SDS011;63191;39.566;2.654;2022-12-16T13:26:15;7.50;;;1.20;;
74660;SDS011;63191;39.566;2.654;2022-12-16T13:29:20;5.60;;;1.00;;
74660;SDS011;63191;39.566;2.654;2022-12-16T13:32:25;8.80;;;1.60;;
74660;SDS011;63191;39.566;2.654;2022-12-16T13:35:24;5.40;;;1.00;;
74660;SDS011;63191;39.566;2.654;2022-12-16T13:38:20;5.50;;;0.80;;
74660;SDS011;63191;39.566;2.654;2022-12-16T13:44:10;4.30;;;0.70;;
74660;SDS011;63191;39.566;2.654;2022-12-16T13:46:56;15.10;;;2.70;;
74660;SDS011;63191;39.566;2.654;2022-12-16T13:49:49;12.50;;;1.70;;
74660;SDS011;63191;39.566;2.654;2022-12-16T13:52:54;8.40;;;1.00;;
74660;SDS011;63191;39.566;2.654;2022-12-16T13:55:47;8.30;;;1.10;;
74660;SDS011;63191;39.566;2.654;2022-12-16T13:58:43;9.10;;;1.30;;
74660;SDS011;63191;39.566;2.654;2022-12-16T14:01:52;8.10;;;1.10;;
74660;SDS011;63191;39.566;2.654;2022-12-16T14:04:50;4.70;;;0.70;;
74660;SDS011;63191;39.566;2.654;2022-12-16T14:07:38;4.40;;;0.80;;
74660;SDS011;63191;39.566;2.654;2022-12-16T14:10:35;5.50;;;0.60;;
74660;SDS011;63191;39.566;2.654;2022-12-16T14:20:20;7.30;;;0.90;;
74660;SDS011;63191;39.566;2.654;2022-12-16T14:22:59;18.00;;;1.40;;
74660;SDS011;63191;39.566;2.654;2022-12-16T14:26:02;12.00;;;1.00;;
74660;SDS011;63191;39.566;2.654;2022-12-16T14:28:47;6.60;;;0.70;;
74660;SDS011;63191;39.566;2.654;2022-12-16T14:31:39;12.70;;;1.10;;
74660;SDS011;63191;39.566;2.654;2022-12-16T14:34:28;7.10;;;0.60;;
74660;SDS011;63191;39.566;2.654;2022-12-16T14:37:34;17.00;;;2.10;;
74660;SDS011;63191;39.566;2.654;2022-12-16T14:40:26;14.00;;;1.60;;
74660;SDS011;63191;39.566;2.654;2022-12-16T14:43:24;17.00;;;1.60;;
74660;SDS011;63191;39.566;2.654;2022-12-16T14:46:38;5.90;;;1.10;;
74660;SDS011;63191;39.566;2.654;2022-12-16T14:49:28;13.70;;;1.60;;
74660;SDS011;63191;39.566;2.654;2022-12-16T14:52:28;7.70;;;1.30;;
74660;SDS011;63191;39.566;2.654;2022-12-16T14:55:14;5.10;;;0.80;;
74660;SDS011;63191;39.566;2.654;2022-12-16T15:00:57;4.50;;;0.80;;
74660;SDS011;63191;39.566;2.654;2022-12-16T15:03:48;4.80;;;0.60;;
74660;SDS011;63191;39.566;2.654;2022-12-16T15:09:32;5.10;;;0.70;;
74660;SDS011;63191;39.566;2.654;2022-12-16T15:12:22;3.00;;;0.60;;
74660;SDS011;63191;39.566;2.654;2022-12-16T15:15:19;4.30;;;0.60;;
74660;SDS011;63191;39.566;2.654;2022-12-16T15:18:19;4.20;;;0.50;;
74660;SDS011;63191;39.566;2.654;2022-12-16T15:21:07;9.20;;;1.00;;
74660;SDS011;63191;39.566;2.654;2022-12-16T15:23:52;8.40;;;0.60;;
74660;SDS011;63191;39.566;2.654;2022-12-16T15:26:37;11.30;;;1.10;;
74660;SDS011;63191;39.566;2.654;2022-12-16T15:38:17;5.00;;;0.70;;
74660;SDS011;63191;39.566;2.654;2022-12-16T15:41:04;3.60;;;0.50;;
74660;SDS011;63191;39.566;2.654;2022-12-16T15:43:50;3.60;;;0.50;;
74660;SDS011;63191;39.566;2.654;2022-12-16T15:46:35;3.20;;;0.50;;
74660;SDS011;63191;39.566;2.654;2022-12-16T15:49:33;5.80;;;0.50;;
74660;SDS011;63191;39.566;2.654;2022-12-16T15:52:42;3.60;;;0.80;;
74660;SDS011;63191;39.566;2.654;2022-12-16T15:55:30;5.10;;;0.60;;
74660;SDS011;63191;39.566;2.654;2022-12-16T15:58:33;5.00;;;0.40;;
74660;SDS011;63191;39.566;2.654;2022-12-16T16:01:23;3.90;;;0.40;;
74660;SDS011;63191;39.566;2.654;2022-12-16T16:07:18;1.50;;;0.30;;
74660;SDS011;63191;39.566;2.654;2022-12-16T16:10:16;2.50;;;0.30;;
74660;SDS011;63191;39.566;2.654;2022-12-16T16:13:13;4.80;;;0.40;;
74660;SDS011;63191;39.566;2.654;2022-12-16T16:15:57;3.50;;;0.40;;
74660;SDS011;63191;39.566;2.654;2022-12-16T16:18:43;4.30;;;0.80;;
74660;SDS011;63191;39.566;2.654;2022-12-16T16:21:28;3.60;;;0.30;;
74660;SDS011;63191;39.566;2.654;2022-12-16T16:24:13;2.90;;;0.40;;
74660;SDS011;63191;39.566;2.654;2022-12-16T16:27:00;4.10;;;0.50;;
74660;SDS011;63191;39.566;2.654;2022-12-16T16:29:45;4.90;;;0.40;;
74660;SDS011;63191;39.566;2.654;2022-12-16T16:32:30;2.90;;;0.40;;
74660;SDS011;63191;39.566;2.654;2022-12-16T16:35:15;5.10;;;0.90;;
74660;SDS011;63191;39.566;2.654;2022-12-16T16:38:00;8.90;;;2.20;;
74660;SDS011;63191;39.566;2.654;2022-12-16T16:40:44;7.30;;;1.80;;
74660;SDS011;63191;39.566;2.654;2022-12-16T16:43:30;8.60;;;2.40;;
74660;SDS011;63191;39.566;2.654;2022-12-16T16:46:36;5.00;;;0.80;;
74660;SDS011;63191;39.566;2.654;2022-12-16T16:49:31;7.50;;;0.70;;
74660;SDS011;63191;39.566;2.654;2022-12-16T16:52:19;6.80;;;1.40;;
74660;SDS011;63191;39.566;2.654;2022-12-16T16:55:11;6.60;;;1.40;;
74660;SDS011;63191;39.566;2.654;2022-12-16T16:57:58;8.70;;;2.70;;
74660;SDS011;63191;39.566;2.654;2022-12-16T17:00:43;7.30;;;2.00;;
74660;SDS011;63191;39.566;2.654;2022-12-16T17:03:27;6.50;;;0.90;;
74660;SDS011;63191;39.566;2.654;2022-12-16T17:06:12;8.00;;;1.30;;
74660;SDS011;63191;39.566;2.654;2022-12-16T17:08:57;5.30;;;1.00;;
74660;SDS011;63191;39.566;2.654;2022-12-16T17:11:41;3.40;;;0.50;;
74660;SDS011;63191;39.566;2.654;2022-12-16T17:14:26;6.70;;;1.00;;
74660;SDS011;63191;39.566;2.654;2022-12-16T17:17:10;9.10;;;1.00;;
74660;SDS011;63191;39.566;2.654;2022-12-16T17:19:54;7.30;;;1.20;;
74660;SDS011;63191;39.566;2.654;2022-12-16T17:22:39;8.80;;;1.50;;
74660;SDS011;63191;39.566;2.654;2022-12-16T17:25:24;6.60;;;1.40;;
74660;SDS011;63191;39.566;2.654;2022-12-16T17:28:09;9.00;;;1.40;;
74660;SDS011;63191;39.566;2.654;2022-12-16T17:30:54;5.00;;;1.00;;
74660;SDS011;63191;39.566;2.654;2022-12-16T17:33:39;4.90;;;1.00;;
74660;SDS011;63191;39.566;2.654;2022-12-16T17:36:25;7.80;;;2.30;;
74660;SDS011;63191;39.566;2.654;2022-12-16T17:39:10;11.10;;;3.40;;
74660;SDS011;63191;39.566;2.654;2022-12-16T17:41:55;9.70;;;3.20;;
74660;SDS011;63191;39.566;2.654;2022-12-16T17:44:40;6.60;;;1.60;;
74660;SDS011;63191;39.566;2.654;2022-12-16T17:47:25;5.40;;;1.00;;
74660;SDS011;63191;39.566;2.654;2022-12-16T17:50:09;5.70;;;1.40;;
74660;SDS011;63191;39.566;2.654;2022-12-16T17:52:55;7.90;;;2.90;;
74660;SDS011;63191;39.566;2.654;2022-12-16T17:55:41;9.40;;;2.00;;
74660;SDS011;63191;39.566;2.654;2022-12-16T17:58:37;6.30;;;1.30;;
74660;SDS011;63191;39.566;2.654;2022-12-16T18:01:23;5.70;;;0.70;;
74660;SDS011;63191;39.566;2.654;2022-12-16T18:04:07;4.30;;;1.00;;
74660;SDS011;63191;39.566;2.654;2022-12-16T18:06:51;3.80;;;0.70;;
74660;SDS011;63191;39.566;2.654;2022-12-16T18:09:36;4.30;;;0.90;;
74660;SDS011;63191;39.566;2.654;2022-12-16T18:12:21;4.90;;;0.90;;
74660;SDS011;63191;39.566;2.654;2022-12-16T18:15:07;6.80;;;1.00;;
74660;SDS011;63191;39.566;2.654;2022-12-16T18:17:52;5.80;;;1.20;;
74660;SDS011;63191;39.566;2.654;2022-12-16T18:20:36;6.60;;;1.30;;